Terminal Aerodrome Forecast
Issued by NWS North Platte, NE

Home | Current Version | Previous Version | Graphics & Text | Print | Product List | Glossary On
Versions: 1 2 3 4 5 6 7 8 9 10 11 12 13 14 15 16 17 18 19
156
FTUS43 KLBF 201120
TAFVTN
TAF
KVTN 201120Z 2012/2112 05015KT P6SM FEW250
      TEMPO 2012/2013 BKN009
     FM201400 03010KT P6SM FEW150
     FM201800 06012KT P6SM FEW250
     FM210100 07008KT P6SM FEW080 SCT200=

USA.gov is the U.S. government's official web portal to all federal, state and local government web resources and services.